sensor_id;sensor_type;location;lat;lon;timestamp;pressure;altitude;pressure_sealevel;temperature;humidity
64551;BME280;50945;44.472;-123.352;2023-03-09T00:01:26;100374.13;;;5.38;90.52
64551;BME280;50945;44.472;-123.352;2023-03-09T00:03:53;100373.28;;;5.37;90.61
64551;BME280;50945;44.472;-123.352;2023-03-09T00:06:22;100377.31;;;5.33;90.29
64551;BME280;50945;44.472;-123.352;2023-03-09T00:08:48;100378.03;;;5.25;90.46
64551;BME280;50945;44.472;-123.352;2023-03-09T00:11:16;100364.38;;;5.17;90.46
64551;BME280;50945;44.472;-123.352;2023-03-09T00:13:43;100344.19;;;5.02;89.57
64551;BME280;50945;44.472;-123.352;2023-03-09T00:16:19;100351.97;;;4.87;90.18
64551;BME280;50945;44.472;-123.352;2023-03-09T00:18:46;100343.56;;;4.80;90.23
64551;BME280;50945;44.472;-123.352;2023-03-09T00:21:12;100344.00;;;4.75;90.52
64551;BME280;50945;44.472;-123.352;2023-03-09T00:23:58;100355.44;;;4.69;90.71
64551;BME280;50945;44.472;-123.352;2023-03-09T00:26:25;100363.00;;;4.66;90.25
64551;BME280;50945;44.472;-123.352;2023-03-09T00:28:51;100368.69;;;4.63;90.23
64551;BME280;50945;44.472;-123.352;2023-03-09T00:31:17;100366.13;;;4.61;90.52
64551;BME280;50945;44.472;-123.352;2023-03-09T00:33:47;100366.97;;;4.62;90.97
64551;BME280;50945;44.472;-123.352;2023-03-09T00:36:16;100362.56;;;4.61;91.16
64551;BME280;50945;44.472;-123.352;2023-03-09T00:38:42;100365.56;;;4.57;91.23
64551;BME280;50945;44.472;-123.352;2023-03-09T00:41:09;100365.16;;;4.52;91.13
64551;BME280;50945;44.472;-123.352;2023-03-09T00:43:36;100372.72;;;4.49;91.28
64551;BME280;50945;44.472;-123.352;2023-03-09T00:46:02;100364.03;;;4.45;91.13
64551;BME280;50945;44.472;-123.352;2023-03-09T00:48:28;100365.47;;;4.40;91.18
64551;BME280;50945;44.472;-123.352;2023-03-09T00:50:55;100367.03;;;4.32;90.92
64551;BME280;50945;44.472;-123.352;2023-03-09T00:53:21;100364.19;;;4.24;91.40
64551;BME280;50945;44.472;-123.352;2023-03-09T00:55:47;100362.47;;;4.13;91.48
64551;BME280;50945;44.472;-123.352;2023-03-09T00:58:13;100364.50;;;4.02;91.33
64551;BME280;50945;44.472;-123.352;2023-03-09T01:00:39;100369.59;;;3.85;93.18
64551;BME280;50945;44.472;-123.352;2023-03-09T01:03:06;100381.09;;;3.68;94.49
64551;BME280;50945;44.472;-123.352;2023-03-09T01:05:32;100373.97;;;3.57;93.41
64551;BME280;50945;44.472;-123.352;2023-03-09T01:07:59;100369.84;;;3.53;93.20
64551;BME280;50945;44.472;-123.352;2023-03-09T01:10:25;100369.25;;;3.49;93.79
64551;BME280;50945;44.472;-123.352;2023-03-09T01:12:51;100370.25;;;3.48;93.82
64551;BME280;50945;44.472;-123.352;2023-03-09T01:15:21;100364.84;;;3.48;93.58
64551;BME280;50945;44.472;-123.352;2023-03-09T01:17:49;100363.59;;;3.52;94.01
64551;BME280;50945;44.472;-123.352;2023-03-09T01:20:16;100355.19;;;3.55;93.55
64551;BME280;50945;44.472;-123.352;2023-03-09T01:22:42;100344.09;;;3.58;93.45
64551;BME280;50945;44.472;-123.352;2023-03-09T01:25:09;100359.47;;;3.58;93.26
64551;BME280;50945;44.472;-123.352;2023-03-09T01:27:35;100355.78;;;3.59;93.23
64551;BME280;50945;44.472;-123.352;2023-03-09T01:30:01;100354.91;;;3.58;93.40
64551;BME280;50945;44.472;-123.352;2023-03-09T01:32:28;100363.72;;;3.60;93.51
64551;BME280;50945;44.472;-123.352;2023-03-09T01:34:55;100358.19;;;3.62;93.52
64551;BME280;50945;44.472;-123.352;2023-03-09T01:37:21;100354.63;;;3.61;93.71
64551;BME280;50945;44.472;-123.352;2023-03-09T01:39:47;100352.91;;;3.60;93.73
64551;BME280;50945;44.472;-123.352;2023-03-09T01:42:14;100353.34;;;3.56;93.43
64551;BME280;50945;44.472;-123.352;2023-03-09T01:44:40;100353.19;;;3.48;94.09
64551;BME280;50945;44.472;-123.352;2023-03-09T01:47:07;100357.28;;;3.42;94.54
64551;BME280;50945;44.472;-123.352;2023-03-09T01:49:48;100349.75;;;3.36;94.27
64551;BME280;50945;44.472;-123.352;2023-03-09T01:52:21;100344.75;;;3.31;94.37
64551;BME280;50945;44.472;-123.352;2023-03-09T01:54:55;100349.72;;;3.26;94.31
64551;BME280;50945;44.472;-123.352;2023-03-09T01:59:58;100355.81;;;3.18;94.66
64551;BME280;50945;44.472;-123.352;2023-03-09T02:02:28;100350.94;;;3.12;94.71
64551;BME280;50945;44.472;-123.352;2023-03-09T02:04:59;100351.22;;;3.09;95.08
64551;BME280;50945;44.472;-123.352;2023-03-09T02:07:31;100347.06;;;3.05;95.13
64551;BME280;50945;44.472;-123.352;2023-03-09T02:12:28;100363.25;;;2.95;95.16
64551;BME280;50945;44.472;-123.352;2023-03-09T02:14:55;100359.97;;;2.92;95.75
64551;BME280;50945;44.472;-123.352;2023-03-09T02:17:22;100366.34;;;2.91;95.57
64551;BME280;50945;44.472;-123.352;2023-03-09T02:20:17;100358.38;;;2.89;95.95
64551;BME280;50945;44.472;-123.352;2023-03-09T02:22:47;100367.34;;;2.90;95.56
64551;BME280;50945;44.472;-123.352;2023-03-09T02:27:47;100359.97;;;2.92;95.77
64551;BME280;50945;44.472;-123.352;2023-03-09T02:30:13;100363.25;;;2.95;95.57
64551;BME280;50945;44.472;-123.352;2023-03-09T02:32:40;100360.44;;;2.97;95.93
64551;BME280;50945;44.472;-123.352;2023-03-09T02:35:06;100365.81;;;2.97;96.34
64551;BME280;50945;44.472;-123.352;2023-03-09T02:37:38;100371.06;;;2.98;95.99
64551;BME280;50945;44.472;-123.352;2023-03-09T02:40:21;100361.28;;;2.97;96.62
64551;BME280;50945;44.472;-123.352;2023-03-09T02:42:52;100371.22;;;2.97;95.91
64551;BME280;50945;44.472;-123.352;2023-03-09T02:45:21;100372.06;;;2.97;96.26
64551;BME280;50945;44.472;-123.352;2023-03-09T02:47:48;100374.50;;;3.00;96.28
64551;BME280;50945;44.472;-123.352;2023-03-09T02:50:15;100368.22;;;3.00;96.25
64551;BME280;50945;44.472;-123.352;2023-03-09T02:52:41;100362.84;;;3.00;96.19
64551;BME280;50945;44.472;-123.352;2023-03-09T02:55:08;100364.69;;;2.99;96.11
64551;BME280;50945;44.472;-123.352;2023-03-09T02:57:35;100363.72;;;3.00;96.52
64551;BME280;50945;44.472;-123.352;2023-03-09T03:00:05;100363.53;;;3.02;95.89
64551;BME280;50945;44.472;-123.352;2023-03-09T03:02:35;100367.97;;;3.03;96.10
64551;BME280;50945;44.472;-123.352;2023-03-09T03:05:01;100370.53;;;3.04;96.11
64551;BME280;50945;44.472;-123.352;2023-03-09T03:07:28;100369.53;;;3.05;96.02
64551;BME280;50945;44.472;-123.352;2023-03-09T03:09:54;100364.88;;;3.08;96.30
64551;BME280;50945;44.472;-123.352;2023-03-09T03:12:21;100356.63;;;3.09;95.60
64551;BME280;50945;44.472;-123.352;2023-03-09T03:14:47;100346.69;;;3.10;96.17
64551;BME280;50945;44.472;-123.352;2023-03-09T03:17:14;100349.25;;;3.11;95.00
64551;BME280;50945;44.472;-123.352;2023-03-09T03:19:43;100349.13;;;3.13;94.96
64551;BME280;50945;44.472;-123.352;2023-03-09T03:22:10;100357.22;;;3.13;95.30
64551;BME280;50945;44.472;-123.352;2023-03-09T03:24:38;100353.38;;;3.15;95.01
64551;BME280;50945;44.472;-123.352;2023-03-09T03:27:10;100348.81;;;3.16;95.11
64551;BME280;50945;44.472;-123.352;2023-03-09T03:29:37;100356.78;;;3.17;95.28
64551;BME280;50945;44.472;-123.352;2023-03-09T03:32:04;100352.22;;;3.18;94.99
64551;BME280;50945;44.472;-123.352;2023-03-09T03:34:30;100344.88;;;3.20;94.90
64551;BME280;50945;44.472;-123.352;2023-03-09T03:36:57;100341.28;;;3.19;94.94
64551;BME280;50945;44.472;-123.352;2023-03-09T03:39:24;100342.31;;;3.18;95.27
64551;BME280;50945;44.472;-123.352;2023-03-09T03:41:50;100353.09;;;3.18;95.27
64551;BME280;50945;44.472;-123.352;2023-03-09T03:44:17;100352.41;;;3.16;95.48
64551;BME280;50945;44.472;-123.352;2023-03-09T03:46:43;100346.25;;;3.14;95.65
64551;BME280;50945;44.472;-123.352;2023-03-09T03:49:10;100344.56;;;3.13;95.22
64551;BME280;50945;44.472;-123.352;2023-03-09T03:51:38;100339.28;;;3.12;95.67
64551;BME280;50945;44.472;-123.352;2023-03-09T03:54:04;100341.00;;;3.13;95.40
64551;BME280;50945;44.472;-123.352;2023-03-09T03:56:34;100344.69;;;3.12;95.70
64551;BME280;50945;44.472;-123.352;2023-03-09T03:59:02;100345.66;;;3.11;95.22
64551;BME280;50945;44.472;-123.352;2023-03-09T04:01:28;100332.31;;;3.09;95.37
64551;BME280;50945;44.472;-123.352;2023-03-09T04:03:56;100340.25;;;3.11;95.26
64551;BME280;50945;44.472;-123.352;2023-03-09T04:06:22;100343.13;;;3.09;95.22
64551;BME280;50945;44.472;-123.352;2023-03-09T04:08:49;100346.81;;;3.08;95.15
64551;BME280;50945;44.472;-123.352;2023-03-09T04:11:15;100344.94;;;3.09;95.31
64551;BME280;50945;44.472;-123.352;2023-03-09T04:13:42;100341.41;;;3.08;95.26
64551;BME280;50945;44.472;-123.352;2023-03-09T04:16:08;100344.13;;;3.08;94.77
64551;BME280;50945;44.472;-123.352;2023-03-09T04:18:34;100338.72;;;3.08;94.95
64551;BME280;50945;44.472;-123.352;2023-03-09T04:21:01;100348.53;;;3.09;95.17
64551;BME280;50945;44.472;-123.352;2023-03-09T04:23:30;100345.84;;;3.09;94.88
64551;BME280;50945;44.472;-123.352;2023-03-09T04:25:59;100349.25;;;3.11;94.89
64551;BME280;50945;44.472;-123.352;2023-03-09T04:28:28;100350.22;;;3.10;94.73
64551;BME280;50945;44.472;-123.352;2023-03-09T04:30:54;100343.97;;;3.10;94.86
64551;BME280;50945;44.472;-123.352;2023-03-09T04:33:21;100342.13;;;3.10;95.13
64551;BME280;50945;44.472;-123.352;2023-03-09T04:35:48;100352.09;;;3.10;95.05
64551;BME280;50945;44.472;-123.352;2023-03-09T04:38:14;100354.06;;;3.08;95.08
64551;BME280;50945;44.472;-123.352;2023-03-09T04:40:41;100345.22;;;3.05;95.46
64551;BME280;50945;44.472;-123.352;2023-03-09T04:43:07;100348.94;;;3.04;95.33
64551;BME280;50945;44.472;-123.352;2023-03-09T04:45:34;100333.84;;;3.02;95.63
64551;BME280;50945;44.472;-123.352;2023-03-09T04:48:02;100339.53;;;2.99;95.61
64551;BME280;50945;44.472;-123.352;2023-03-09T04:50:29;100342.38;;;2.97;95.09
64551;BME280;50945;44.472;-123.352;2023-03-09T04:52:55;100341.66;;;2.95;95.24
64551;BME280;50945;44.472;-123.352;2023-03-09T04:55:23;100340.06;;;2.93;95.17
64551;BME280;50945;44.472;-123.352;2023-03-09T04:57:49;100339.59;;;2.88;95.41
64551;BME280;50945;44.472;-123.352;2023-03-09T05:00:16;100344.16;;;2.87;95.21
64551;BME280;50945;44.472;-123.352;2023-03-09T05:02:43;100336.31;;;2.84;94.88
64551;BME280;50945;44.472;-123.352;2023-03-09T05:05:11;100332.06;;;2.81;95.29
64551;BME280;50945;44.472;-123.352;2023-03-09T05:07:37;100343.72;;;2.82;95.97
64551;BME280;50945;44.472;-123.352;2023-03-09T05:10:06;100338.44;;;2.80;95.80
64551;BME280;50945;44.472;-123.352;2023-03-09T05:12:33;100334.91;;;2.80;95.91
64551;BME280;50945;44.472;-123.352;2023-03-09T05:15:00;100333.91;;;2.81;95.63
64551;BME280;50945;44.472;-123.352;2023-03-09T05:17:27;100336.63;;;2.81;95.83
64551;BME280;50945;44.472;-123.352;2023-03-09T05:19:54;100327.66;;;2.80;95.82
64551;BME280;50945;44.472;-123.352;2023-03-09T05:22:21;100323.97;;;2.81;95.35
64551;BME280;50945;44.472;-123.352;2023-03-09T05:24:47;100328.66;;;2.79;96.21
64551;BME280;50945;44.472;-123.352;2023-03-09T05:27:14;100331.63;;;2.76;95.75
64551;BME280;50945;44.472;-123.352;2023-03-09T05:29:41;100331.47;;;2.78;95.07
64551;BME280;50945;44.472;-123.352;2023-03-09T05:32:07;100328.06;;;2.76;96.06
64551;BME280;50945;44.472;-123.352;2023-03-09T05:34:34;100329.63;;;2.78;95.65
64551;BME280;50945;44.472;-123.352;2023-03-09T05:37:01;100322.66;;;2.76;96.52
64551;BME280;50945;44.472;-123.352;2023-03-09T05:39:27;100316.25;;;2.77;95.81
64551;BME280;50945;44.472;-123.352;2023-03-09T05:41:54;100315.16;;;2.79;95.74
64551;BME280;50945;44.472;-123.352;2023-03-09T05:44:20;100314.28;;;2.79;96.09
64551;BME280;50945;44.472;-123.352;2023-03-09T05:46:47;100314.00;;;2.82;95.88
64551;BME280;50945;44.472;-123.352;2023-03-09T05:49:13;100310.34;;;2.83;95.44
64551;BME280;50945;44.472;-123.352;2023-03-09T05:51:40;100309.19;;;2.85;95.88
64551;BME280;50945;44.472;-123.352;2023-03-09T05:54:06;100305.66;;;2.85;96.76
64551;BME280;50945;44.472;-123.352;2023-03-09T05:56:32;100301.22;;;2.84;96.54
64551;BME280;50945;44.472;-123.352;2023-03-09T05:58:58;100289.44;;;2.85;95.79
64551;BME280;50945;44.472;-123.352;2023-03-09T06:01:27;100291.31;;;2.84;96.06
64551;BME280;50945;44.472;-123.352;2023-03-09T06:03:54;100296.69;;;2.84;96.36
64551;BME280;50945;44.472;-123.352;2023-03-09T06:06:21;100294.97;;;2.83;96.45
64551;BME280;50945;44.472;-123.352;2023-03-09T06:08:47;100290.56;;;2.82;97.26
64551;BME280;50945;44.472;-123.352;2023-03-09T06:11:14;100287.00;;;2.82;96.86
64551;BME280;50945;44.472;-123.352;2023-03-09T06:13:43;100288.03;;;2.81;95.97
64551;BME280;50945;44.472;-123.352;2023-03-09T06:16:15;100284.56;;;2.79;97.15
64551;BME280;50945;44.472;-123.352;2023-03-09T06:18:42;100283.72;;;2.78;96.60
64551;BME280;50945;44.472;-123.352;2023-03-09T06:21:08;100275.63;;;2.78;97.56
64551;BME280;50945;44.472;-123.352;2023-03-09T06:23:35;100283.88;;;2.77;96.16
64551;BME280;50945;44.472;-123.352;2023-03-09T06:26:09;100286.44;;;2.78;96.20
64551;BME280;50945;44.472;-123.352;2023-03-09T06:28:36;100289.97;;;2.79;96.28
64551;BME280;50945;44.472;-123.352;2023-03-09T06:31:11;100289.00;;;2.80;95.90
64551;BME280;50945;44.472;-123.352;2023-03-09T06:33:43;100286.16;;;2.81;95.39
64551;BME280;50945;44.472;-123.352;2023-03-09T06:36:12;100279.91;;;2.81;95.82
64551;BME280;50945;44.472;-123.352;2023-03-09T06:38:38;100289.72;;;2.82;95.85
64551;BME280;50945;44.472;-123.352;2023-03-09T06:41:05;100270.69;;;2.83;95.33
64551;BME280;50945;44.472;-123.352;2023-03-09T06:43:32;100266.00;;;2.85;95.93
64551;BME280;50945;44.472;-123.352;2023-03-09T06:45:58;100267.72;;;2.87;95.60
64551;BME280;50945;44.472;-123.352;2023-03-09T06:48:25;100271.97;;;2.89;95.62
64551;BME280;50945;44.472;-123.352;2023-03-09T06:50:52;100271.72;;;2.92;95.67
64551;BME280;50945;44.472;-123.352;2023-03-09T06:53:20;100269.13;;;2.91;95.72
64551;BME280;50945;44.472;-123.352;2023-03-09T06:55:46;100272.69;;;2.91;96.14
64551;BME280;50945;44.472;-123.352;2023-03-09T06:58:12;100265.59;;;2.90;96.27
64551;BME280;50945;44.472;-123.352;2023-03-09T07:00:38;100256.78;;;2.88;96.27
64551;BME280;50945;44.472;-123.352;2023-03-09T07:03:08;100254.94;;;2.89;96.39
64551;BME280;50945;44.472;-123.352;2023-03-09T07:05:39;100246.81;;;2.89;96.65
64551;BME280;50945;44.472;-123.352;2023-03-09T07:08:05;100244.25;;;2.87;96.56
64551;BME280;50945;44.472;-123.352;2023-03-09T07:10:31;100244.38;;;2.85;96.75
64551;BME280;50945;44.472;-123.352;2023-03-09T07:12:57;100244.53;;;2.84;96.39
64551;BME280;50945;44.472;-123.352;2023-03-09T07:15:24;100250.81;;;2.84;96.34
64551;BME280;50945;44.472;-123.352;2023-03-09T07:17:50;100249.78;;;2.85;96.38
64551;BME280;50945;44.472;-123.352;2023-03-09T07:20:16;100246.81;;;2.89;95.99
64551;BME280;50945;44.472;-123.352;2023-03-09T07:22:43;100242.28;;;2.89;95.86
64551;BME280;50945;44.472;-123.352;2023-03-09T07:25:09;100245.69;;;2.91;95.71
64551;BME280;50945;44.472;-123.352;2023-03-09T07:27:35;100241.03;;;2.93;95.92
64551;BME280;50945;44.472;-123.352;2023-03-09T07:30:01;100238.16;;;2.95;95.93
64551;BME280;50945;44.472;-123.352;2023-03-09T07:32:28;100242.44;;;2.97;97.02
64551;BME280;50945;44.472;-123.352;2023-03-09T07:34:55;100238.03;;;2.96;96.21
64551;BME280;50945;44.472;-123.352;2023-03-09T07:37:22;100237.88;;;2.98;96.19
64551;BME280;50945;44.472;-123.352;2023-03-09T07:39:48;100230.63;;;2.98;95.90
64551;BME280;50945;44.472;-123.352;2023-03-09T07:42:14;100225.09;;;3.00;95.30
64551;BME280;50945;44.472;-123.352;2023-03-09T07:44:40;100212.47;;;3.00;95.87
64551;BME280;50945;44.472;-123.352;2023-03-09T07:47:07;100205.22;;;3.01;95.37
64551;BME280;50945;44.472;-123.352;2023-03-09T07:49:33;100198.22;;;2.98;95.12
64551;BME280;50945;44.472;-123.352;2023-03-09T07:51:59;100194.69;;;2.98;94.75
64551;BME280;50945;44.472;-123.352;2023-03-09T07:54:25;100191.97;;;2.98;93.97
64551;BME280;50945;44.472;-123.352;2023-03-09T07:56:51;100198.38;;;2.97;94.11
64551;BME280;50945;44.472;-123.352;2023-03-09T07:59:18;100193.97;;;2.96;94.40
64551;BME280;50945;44.472;-123.352;2023-03-09T08:01:45;100206.63;;;2.95;94.57
64551;BME280;50945;44.472;-123.352;2023-03-09T08:04:11;100185.16;;;2.94;94.38
64551;BME280;50945;44.472;-123.352;2023-03-09T08:06:39;100197.25;;;2.90;94.15
64551;BME280;50945;44.472;-123.352;2023-03-09T08:09:08;100184.00;;;2.87;94.23
64551;BME280;50945;44.472;-123.352;2023-03-09T08:11:38;100199.50;;;2.84;94.54
64551;BME280;50945;44.472;-123.352;2023-03-09T08:14:04;100189.81;;;2.82;94.71
64551;BME280;50945;44.472;-123.352;2023-03-09T08:16:30;100198.19;;;2.79;94.54
64551;BME280;50945;44.472;-123.352;2023-03-09T08:18:57;100198.19;;;2.79;94.79
64551;BME280;50945;44.472;-123.352;2023-03-09T08:21:23;100206.28;;;2.79;94.86
64551;BME280;50945;44.472;-123.352;2023-03-09T08:23:49;100208.72;;;2.82;94.80
64551;BME280;50945;44.472;-123.352;2023-03-09T08:26:17;100221.25;;;2.83;94.86
64551;BME280;50945;44.472;-123.352;2023-03-09T08:28:43;100224.78;;;2.83;96.51
64551;BME280;50945;44.472;-123.352;2023-03-09T08:31:10;100231.78;;;2.86;95.44
64551;BME280;50945;44.472;-123.352;2023-03-09T08:33:37;100235.19;;;2.88;94.83
64551;BME280;50945;44.472;-123.352;2023-03-09T08:36:14;100226.06;;;2.89;94.66
64551;BME280;50945;44.472;-123.352;2023-03-09T08:38:42;100207.03;;;2.91;94.03
64551;BME280;50945;44.472;-123.352;2023-03-09T08:41:09;100201.50;;;2.92;93.30
64551;BME280;50945;44.472;-123.352;2023-03-09T08:43:35;100187.88;;;2.94;93.57
64551;BME280;50945;44.472;-123.352;2023-03-09T08:46:02;100189.56;;;2.95;93.05
64551;BME280;50945;44.472;-123.352;2023-03-09T08:48:28;100173.06;;;2.98;92.21
64551;BME280;50945;44.472;-123.352;2023-03-09T08:50:54;100165.69;;;3.00;92.14
64551;BME280;50945;44.472;-123.352;2023-03-09T08:53:21;100174.50;;;3.02;92.31
64551;BME280;50945;44.472;-123.352;2023-03-09T08:55:47;100174.22;;;3.05;91.83
64551;BME280;50945;44.472;-123.352;2023-03-09T08:58:13;100170.53;;;3.06;91.44
64551;BME280;50945;44.472;-123.352;2023-03-09T09:00:40;100173.94;;;3.08;91.86
64551;BME280;50945;44.472;-123.352;2023-03-09T09:03:06;100170.25;;;3.09;91.88
64551;BME280;50945;44.472;-123.352;2023-03-09T09:05:34;100172.97;;;3.09;91.66
64551;BME280;50945;44.472;-123.352;2023-03-09T09:08:00;100161.28;;;3.09;91.54
64551;BME280;50945;44.472;-123.352;2023-03-09T09:10:27;100164.88;;;3.09;91.27
64551;BME280;50945;44.472;-123.352;2023-03-09T09:12:53;100170.41;;;3.08;91.37
64551;BME280;50945;44.472;-123.352;2023-03-09T09:15:20;100189.31;;;3.08;91.80
64551;BME280;50945;44.472;-123.352;2023-03-09T09:17:47;100191.28;;;3.05;91.54
64551;BME280;50945;44.472;-123.352;2023-03-09T09:20:13;100191.44;;;3.04;92.42
64551;BME280;50945;44.472;-123.352;2023-03-09T09:22:41;100191.44;;;3.04;92.62
64551;BME280;50945;44.472;-123.352;2023-03-09T09:25:08;100190.56;;;3.03;91.92
64551;BME280;50945;44.472;-123.352;2023-03-09T09:27:35;100198.66;;;3.03;92.04
64551;BME280;50945;44.472;-123.352;2023-03-09T09:30:03;100191.44;;;3.04;92.01
64551;BME280;50945;44.472;-123.352;2023-03-09T09:32:29;100187.72;;;3.05;91.39
64551;BME280;50945;44.472;-123.352;2023-03-09T09:34:57;100182.19;;;3.07;91.59
64551;BME280;50945;44.472;-123.352;2023-03-09T09:37:23;100190.00;;;3.10;91.64
64551;BME280;50945;44.472;-123.352;2023-03-09T09:39:50;100180.91;;;3.11;91.72
64551;BME280;50945;44.472;-123.352;2023-03-09T09:42:24;100184.47;;;3.11;91.30
64551;BME280;50945;44.472;-123.352;2023-03-09T09:44:54;100175.34;;;3.12;91.21
64551;BME280;50945;44.472;-123.352;2023-03-09T09:47:24;100164.41;;;3.14;91.11
64551;BME280;50945;44.472;-123.352;2023-03-09T09:49:53;100159.88;;;3.14;90.92
64551;BME280;50945;44.472;-123.352;2023-03-09T10:01:23;100147.38;;;3.13;89.81
64551;BME280;50945;44.472;-123.352;2023-03-09T10:03:54;100132.00;;;3.14;90.28
64551;BME280;50945;44.472;-123.352;2023-03-09T10:06:25;100143.66;;;3.14;89.98
64551;BME280;50945;44.472;-123.352;2023-03-09T10:11:45;100121.34;;;3.12;90.37
64551;BME280;50945;44.472;-123.352;2023-03-09T10:15:10;100121.47;;;3.11;90.49
64551;BME280;50945;44.472;-123.352;2023-03-09T10:17:31;100125.31;;;3.08;90.30
64551;BME280;50945;44.472;-123.352;2023-03-09T10:20:09;100120.91;;;3.07;90.54
64551;BME280;50945;44.472;-123.352;2023-03-09T10:22:38;100113.81;;;3.06;90.27
64551;BME280;50945;44.472;-123.352;2023-03-09T10:25:10;100107.72;;;3.04;90.42
64551;BME280;50945;44.472;-123.352;2023-03-09T10:27:49;100109.53;;;3.03;90.17
64551;BME280;50945;44.472;-123.352;2023-03-09T10:33:15;100096.91;;;3.04;90.46
64551;BME280;50945;44.472;-123.352;2023-03-09T10:38:18;100086.81;;;3.06;90.28
64551;BME280;50945;44.472;-123.352;2023-03-09T10:40:50;100066.88;;;3.07;89.82
64551;BME280;50945;44.472;-123.352;2023-03-09T10:43:32;100071.31;;;3.08;89.67
64551;BME280;50945;44.472;-123.352;2023-03-09T10:46:19;100057.94;;;3.07;89.45
64551;BME280;50945;44.472;-123.352;2023-03-09T10:48:47;100046.31;;;3.06;89.33
64551;BME280;50945;44.472;-123.352;2023-03-09T10:51:31;100051.84;;;3.04;89.09
64551;BME280;50945;44.472;-123.352;2023-03-09T10:54:13;100037.50;;;3.04;89.36
64551;BME280;50945;44.472;-123.352;2023-03-09T10:56:46;100033.91;;;3.03;89.19
64551;BME280;50945;44.472;-123.352;2023-03-09T10:59:16;100034.78;;;3.04;89.13
64551;BME280;50945;44.472;-123.352;2023-03-09T11:01:45;100027.53;;;3.04;89.07
64551;BME280;50945;44.472;-123.352;2023-03-09T11:09:19;100011.88;;;3.08;89.25
64551;BME280;50945;44.472;-123.352;2023-03-09T11:11:48;100014.44;;;3.10;88.63
64551;BME280;50945;44.472;-123.352;2023-03-09T11:14:33;100006.50;;;3.08;88.85
64551;BME280;50945;44.472;-123.352;2023-03-09T11:22:45;100001.09;;;2.98;90.17
64551;BME280;50945;44.472;-123.352;2023-03-09T11:28:03;99992.03;;;2.90;91.04
64551;BME280;50945;44.472;-123.352;2023-03-09T11:30:31;99997.44;;;2.80;91.58
64551;BME280;50945;44.472;-123.352;2023-03-09T11:32:58;99990.63;;;2.76;91.65
64551;BME280;50945;44.472;-123.352;2023-03-09T11:35:24;99993.47;;;2.74;91.09
64551;BME280;50945;44.472;-123.352;2023-03-09T11:37:57;99984.66;;;2.72;91.32
64551;BME280;50945;44.472;-123.352;2023-03-09T11:40:27;99984.78;;;2.71;90.94
64551;BME280;50945;44.472;-123.352;2023-03-09T11:45:34;99980.53;;;2.68;91.45
64551;BME280;50945;44.472;-123.352;2023-03-09T11:50:54;99979.94;;;2.64;90.50
64551;BME280;50945;44.472;-123.352;2023-03-09T11:53:34;99974.28;;;2.67;90.47
64551;BME280;50945;44.472;-123.352;2023-03-09T11:56:35;99974.97;;;2.70;90.37
64551;BME280;50945;44.472;-123.352;2023-03-09T12:04:16;99977.25;;;2.74;90.41
64551;BME280;50945;44.472;-123.352;2023-03-09T12:14:56;99955.09;;;2.61;92.14
64551;BME280;50945;44.472;-123.352;2023-03-09T12:17:30;99950.56;;;2.61;91.88
64551;BME280;50945;44.472;-123.352;2023-03-09T12:19:58;99940.63;;;2.62;91.47
64551;BME280;50945;44.472;-123.352;2023-03-09T12:22:37;99939.66;;;2.63;91.64
64551;BME280;50945;44.472;-123.352;2023-03-09T12:25:06;99936.94;;;2.63;91.19
64551;BME280;50945;44.472;-123.352;2023-03-09T12:27:51;99931.38;;;2.64;91.65
64551;BME280;50945;44.472;-123.352;2023-03-09T12:30:26;99925.13;;;2.64;91.81
64551;BME280;50945;44.472;-123.352;2023-03-09T12:33:00;99923.59;;;2.61;91.74
64551;BME280;50945;44.472;-123.352;2023-03-09T12:40:32;99917.47;;;2.59;91.96
64551;BME280;50945;44.472;-123.352;2023-03-09T12:45:50;99906.41;;;2.53;92.34
64551;BME280;50945;44.472;-123.352;2023-03-09T12:48:35;99904.41;;;2.55;91.95
64551;BME280;50945;44.472;-123.352;2023-03-09T12:51:19;99906.97;;;2.56;91.59
64551;BME280;50945;44.472;-123.352;2023-03-09T12:54:22;99893.03;;;2.61;91.12
64551;BME280;50945;44.472;-123.352;2023-03-09T12:56:51;99895.03;;;2.69;90.19
64551;BME280;50945;44.472;-123.352;2023-03-09T12:59:23;99882.09;;;2.72;91.08
64551;BME280;50945;44.472;-123.352;2023-03-09T13:01:51;99879.94;;;2.76;89.62
64551;BME280;50945;44.472;-123.352;2023-03-09T13:04:23;99875.81;;;2.81;89.08
64551;BME280;50945;44.472;-123.352;2023-03-09T13:06:52;99870.69;;;2.88;89.04
64551;BME280;50945;44.472;-123.352;2023-03-09T13:09:37;99879.00;;;2.95;88.41
64551;BME280;50945;44.472;-123.352;2023-03-09T13:12:17;99886.53;;;3.01;87.83
64551;BME280;50945;44.472;-123.352;2023-03-09T13:22:51;99871.41;;;3.18;86.24
64551;BME280;50945;44.472;-123.352;2023-03-09T13:25:31;99876.50;;;3.21;86.14
64551;BME280;50945;44.472;-123.352;2023-03-09T13:28:13;99860.00;;;3.24;86.45
64551;BME280;50945;44.472;-123.352;2023-03-09T13:30:42;99867.97;;;3.26;86.42
64551;BME280;50945;44.472;-123.352;2023-03-09T13:33:22;99869.50;;;3.28;85.52
64551;BME280;50945;44.472;-123.352;2023-03-09T13:35:55;99864.97;;;3.29;84.99
64551;BME280;50945;44.472;-123.352;2023-03-09T13:38:28;99851.16;;;3.32;85.16
64551;BME280;50945;44.472;-123.352;2023-03-09T13:41:00;99861.50;;;3.36;84.64
64551;BME280;50945;44.472;-123.352;2023-03-09T13:43:36;99856.09;;;3.36;84.11
64551;BME280;50945;44.472;-123.352;2023-03-09T13:48:53;99852.06;;;3.50;84.74
64551;BME280;50945;44.472;-123.352;2023-03-09T13:51:39;99837.22;;;3.54;83.97
64551;BME280;50945;44.472;-123.352;2023-03-09T13:54:27;99841.31;;;3.58;83.57
64551;BME280;50945;44.472;-123.352;2023-03-09T14:02:42;99795.91;;;3.62;82.08